Peell, Washington
Current Conditions -  °F | °C
As of 5:35 PM on Sunday 23 Nov 2014 (Local Time) from KCLS Reporting Station
NA  
Wind Chill: 43°   Ceiling: NA
Heat Index: 43°   Visibility: 10mi
Dew Point: 43°   Wind: 3mph
Humidity: 100%   Direction: 240°WSW
Pressure: 30.27"   Gusts: NA
Location:  46.4795°N, 123.258°W
Report Text: KCLS 240135Z AUTO 24003KT 10SM 06/06 A3027 RMK AO2
Loading
Personal Weather Stations






























Interactive Weather Map New forecast layout! Learn more

10-Day Weather Forecast

Advertisements
Track Severe Weather on mobile